Alice International

About
Name: Alice International
Identifier:  ALI/KALI
Serves:  Alice, Texas
Owner:  City of Alice & Jim Wells County
Public/Private:  Public
Local Time:  23. Aug 00:39 CDT
Description: Alice International Airport is three miles southeast of Alice, in Jim Wells County, Texas. The airport is owned by the city and county. The National Plan of Integrated Airport Systems for 2011–2015 categorized it as a general aviation facility.
Source: Wikipedia
Location
Runways
Identifier Length (m/ft) Surface
13/31 5,997/5,997 Asphalt
17/35 4,490/4,490 Asphalt
Flights per Day
0 flights
Distance: 960km (596mi)
Punctuality
-100% (0 flights per day delayed)
Delay Average: 8 minutes
Current Weather
 27 C (Humidity: 83%)
  4kt (7km/h / 4mph) from 140°
  16km (10 mi.)
 
 METAR KALI 230453Z AUTO 14004KT 10SM CLR 27/24 A2988 RMK AO2 SLP116 T02720239 $

Current Flights

Departures
Number Departure To Airline
Arrivals
Number Arrival From Airline

Current Delays

Departures
N/A
Arrivals
N/A

Destinations

Top Destinations
Airport Flights
per week
Seats
per week
  Houston (HOU) 0 - 0 0
  Nashville (BNA) 0 - 0 0
  San Antonio (SAT) 0 - 0 0
  New Iberia (ARA) 0 - 0 0
  Ruidoso (RUI) 0 - 0 0
  Laredo (LRD) 0 - 0 0

Airlines & Planes

Top Airlines
Airline Flights
per Day
Seats
per Day
  National Airlines 0 -
Jet Charter Inc ( Franklin Lakes Nj ) 0 -
Top Plane Types
Model Flights Seats
Beech B200 Super King Air 0.2/day - 0
Cessna C25A 0.1/day - 0